createdAt,value
2023-02-27T00:03:47.075Z,102980.81
2023-02-27T00:08:36.811Z,102982.84
2023-02-27T00:13:26.873Z,102984.88
2023-02-27T00:18:23.692Z,102986.78
2023-02-27T00:23:24.908Z,102986.50
2023-02-27T00:28:15.847Z,102976.69
2023-02-27T00:33:11.015Z,102974.13
2023-02-27T00:38:06.412Z,102965.47
2023-02-27T00:42:59.280Z,102972.03
2023-02-27T00:47:49.195Z,102970.06
2023-02-27T00:52:43.135Z,102964.41
2023-02-27T00:57:37.393Z,102962.47
2023-02-27T01:02:31.956Z,102965.47
2023-02-27T01:07:30.588Z,102966.81
2023-02-27T01:17:34.662Z,102974.88
2023-02-27T01:22:27.549Z,102980.00
2023-02-27T01:27:17.437Z,102979.31
2023-02-27T01:32:07.755Z,102972.59
2023-02-27T01:37:04.062Z,102966.41
2023-02-27T01:41:57.478Z,102967.66
2023-02-27T01:46:55.135Z,102960.41
2023-02-27T01:51:47.628Z,102953.75
2023-02-27T01:56:42.191Z,102964.66
2023-02-27T02:01:44.734Z,102954.47
2023-02-27T02:06:39.725Z,102952.75
2023-02-27T02:11:34.378Z,102943.00
2023-02-27T02:16:37.715Z,102942.13
2023-02-27T02:22:07.061Z,102948.50
2023-02-27T02:27:04.805Z,102930.78
2023-02-27T02:32:32.173Z,102946.91
2023-02-27T02:37:55.390Z,102940.31
2023-02-27T02:43:10.204Z,102955.72
2023-02-27T02:48:13.164Z,102955.06
2023-02-27T02:53:17.326Z,102954.56
2023-02-27T02:58:12.912Z,102951.47
2023-02-27T03:03:30.745Z,102953.59
2023-02-27T03:08:32.062Z,102956.38
2023-02-27T03:13:31.777Z,102952.59
2023-02-27T03:18:25.279Z,102959.53
2023-02-27T03:23:21.683Z,102955.78
2023-02-27T03:28:21.985Z,102946.91
2023-02-27T03:33:32.472Z,102960.78
2023-02-27T03:38:32.227Z,102962.00
2023-02-27T03:43:31.977Z,102948.16
2023-02-27T03:48:31.476Z,102965.81
2023-02-27T03:53:33.919Z,102960.75
2023-02-27T03:58:25.261Z,102968.38
2023-02-27T04:03:22.351Z,102963.91
2023-02-27T04:08:25.149Z,102961.69
2023-02-27T04:13:25.824Z,102972.63
2023-02-27T04:18:23.332Z,102984.94
2023-02-27T04:23:18.478Z,102974.59
2023-02-27T04:28:25.693Z,102992.47
2023-02-27T04:33:17.783Z,102990.59
2023-02-27T04:38:13.355Z,102987.66
2023-02-27T04:43:06.904Z,102993.09
2023-02-27T04:48:02.375Z,103005.31
2023-02-27T04:52:55.894Z,103004.75
2023-02-27T04:58:00.390Z,103017.25
2023-02-27T05:02:54.794Z,103014.91
2023-02-27T05:07:55.684Z,103019.84
2023-02-27T05:12:52.802Z,103013.53
2023-02-27T05:17:54.298Z,103024.97
2023-02-27T05:23:02.530Z,103018.88
2023-02-27T05:28:05.053Z,103026.28
2023-02-27T05:33:01.278Z,103025.91
2023-02-27T05:37:57.899Z,103028.94
2023-02-27T05:42:50.442Z,103024.63
2023-02-27T05:47:44.976Z,103028.06
2023-02-27T05:52:35.487Z,103021.34
2023-02-27T05:57:36.022Z,103032.47
2023-02-27T06:02:31.152Z,103040.47
2023-02-27T06:07:28.635Z,103036.13
2023-02-27T06:12:21.233Z,103044.41
2023-02-27T06:17:16.743Z,103047.53
2023-02-27T06:22:16.861Z,103051.88
2023-02-27T06:27:09.459Z,103061.22
2023-02-27T06:31:59.761Z,103062.50
2023-02-27T06:36:53.010Z,103067.22
2023-02-27T06:41:48.661Z,103056.25
2023-02-27T06:46:46.487Z,103073.19
2023-02-27T06:51:42.456Z,103096.84
2023-02-27T06:56:44.487Z,103105.38
2023-02-27T07:01:37.855Z,103114.91
2023-02-27T07:07:35.108Z,103113.53
2023-02-27T07:11:42.419Z,103114.56
2023-02-27T07:16:39.441Z,103117.75
2023-02-27T07:21:35.607Z,103123.00
2023-02-27T07:26:33.552Z,103129.00
2023-02-27T07:31:25.605Z,103123.41
2023-02-27T07:36:18.074Z,103126.38
2023-02-27T07:41:21.307Z,103109.03
2023-02-27T07:46:28.541Z,103119.28
2023-02-27T07:51:24.260Z,103121.66
2023-02-27T07:56:21.577Z,103123.19
2023-02-27T08:01:15.498Z,103132.06
2023-02-27T08:06:12.759Z,103132.56
2023-02-27T08:11:02.955Z,103139.53
2023-02-27T08:15:58.724Z,103137.56
2023-02-27T08:20:51.850Z,103143.47
2023-02-27T08:25:46.699Z,103138.03
2023-02-27T08:30:42.670Z,103149.50
2023-02-27T08:35:40.188Z,103147.75
2023-02-27T08:40:36.847Z,103148.47
2023-02-27T08:45:27.132Z,103153.59
2023-02-27T08:50:17.571Z,103153.44
2023-02-27T08:55:12.794Z,103157.75
2023-02-27T09:00:10.364Z,103162.03
2023-02-27T09:05:01.915Z,103162.56
2023-02-27T09:10:00.649Z,103164.59
2023-02-27T09:14:56.253Z,103170.63
2023-02-27T09:20:02.152Z,103169.47
2023-02-27T09:24:58.396Z,103169.81
2023-02-27T09:29:49.098Z,103172.50
2023-02-27T09:34:46.608Z,103178.06
2023-02-27T09:39:41.037Z,103177.88
2023-02-27T09:44:46.346Z,103173.84
2023-02-27T09:49:48.845Z,103169.44
2023-02-27T09:54:44.566Z,103167.34
2023-02-27T09:59:39.333Z,103175.69
2023-02-27T10:04:35.160Z,103176.53
2023-02-27T10:09:37.455Z,103177.09
2023-02-27T10:14:45.712Z,103177.94
2023-02-27T10:19:54.167Z,103176.38
2023-02-27T10:24:50.279Z,103179.78
2023-02-27T10:29:44.930Z,103171.66
2023-02-27T10:34:39.951Z,103177.69
2023-02-27T10:39:32.092Z,103184.38
2023-02-27T10:44:24.576Z,103175.97
2023-02-27T10:49:25.114Z,103172.09
2023-02-27T10:54:27.195Z,103167.81
2023-02-27T10:59:22.553Z,103154.59
2023-02-27T11:04:14.017Z,103153.47
2023-02-27T11:09:24.354Z,103160.22
2023-02-27T11:14:31.167Z,103156.00
2023-02-27T11:19:30.759Z,103139.97
2023-02-27T11:24:24.746Z,103138.81
2023-02-27T11:29:26.392Z,103126.09
2023-02-27T11:34:25.143Z,103120.91
2023-02-27T11:39:33.939Z,103122.03
2023-02-27T11:44:50.612Z,103105.59
2023-02-27T11:49:52.675Z,103101.53
2023-02-27T11:54:53.162Z,103096.66
2023-02-27T11:59:47.944Z,103087.56
2023-02-27T12:04:48.476Z,103088.75
2023-02-27T12:09:47.872Z,103086.00
2023-02-27T12:14:46.285Z,103079.16
2023-02-27T12:19:40.812Z,103074.50
2023-02-27T12:24:36.325Z,103073.66
2023-02-27T12:29:40.899Z,103069.63
2023-02-27T12:34:39.586Z,103066.06
2023-02-27T12:39:39.292Z,103068.25
2023-02-27T12:44:42.622Z,103076.53
2023-02-27T12:49:49.246Z,103075.47
2023-02-27T12:54:43.225Z,103067.63
2023-02-27T12:59:42.815Z,103060.41
2023-02-27T13:04:41.310Z,103060.78
2023-02-27T13:09:50.474Z,103063.84
2023-02-27T13:14:51.095Z,103060.00
2023-02-27T13:19:46.077Z,103062.28
2023-02-27T13:24:49.503Z,103054.50
2023-02-27T13:29:49.797Z,103052.72
2023-02-27T13:34:47.657Z,103057.25
2023-02-27T13:39:52.677Z,103058.88
2023-02-27T13:44:50.256Z,103051.94
2023-02-27T13:49:48.266Z,103048.19
2023-02-27T13:54:49.959Z,103043.63
2023-02-27T13:59:45.608Z,103054.25
2023-02-27T14:04:42.567Z,103053.34
2023-02-27T14:09:40.811Z,103045.47
2023-02-27T14:14:45.235Z,103036.78
2023-02-27T14:19:58.650Z,103041.78
2023-02-27T14:25:10.173Z,103042.69
2023-02-27T14:30:05.134Z,103041.78
2023-02-27T14:35:09.699Z,103042.03
2023-02-27T14:40:07.397Z,103033.50
2023-02-27T14:44:58.571Z,103033.88
2023-02-27T14:49:51.240Z,103029.72
2023-02-27T14:54:45.351Z,103019.22
2023-02-27T14:59:45.272Z,103014.72
2023-02-27T15:04:43.070Z,103015.25
2023-02-27T15:09:38.094Z,103011.03
2023-02-27T15:14:38.588Z,103027.22
2023-02-27T15:19:40.321Z,103019.03
2023-02-27T15:24:49.278Z,103019.66
2023-02-27T15:29:50.918Z,103023.84
2023-02-27T15:34:50.689Z,103012.16
2023-02-27T15:39:46.799Z,103014.00
2023-02-27T15:44:40.853Z,103015.13
2023-02-27T15:49:41.520Z,103021.09
2023-02-27T15:54:38.918Z,103016.25
2023-02-27T15:59:29.110Z,103016.44
2023-02-27T16:04:21.197Z,103022.97
2023-02-27T16:09:25.599Z,103024.91
2023-02-27T16:14:31.018Z,103025.09
2023-02-27T16:19:33.855Z,103021.63
2023-02-27T16:24:36.128Z,103020.97
2023-02-27T16:29:27.056Z,103028.47
2023-02-27T16:34:22.688Z,103024.72
2023-02-27T16:39:17.487Z,103030.25
2023-02-27T16:44:12.285Z,103030.91
2023-02-27T16:49:14.204Z,103032.53
2023-02-27T16:54:12.646Z,103047.91
2023-02-27T16:59:07.731Z,103042.53
2023-02-27T17:04:00.661Z,103046.59
2023-02-27T17:08:50.546Z,103050.00
2023-02-27T17:13:41.311Z,103047.09
2023-02-27T17:18:34.581Z,103054.34
2023-02-27T17:23:26.358Z,103060.81
2023-02-27T17:28:16.384Z,103066.88
2023-02-27T17:33:13.510Z,103068.72
2023-02-27T17:38:14.650Z,103077.16
2023-02-27T17:43:07.995Z,103086.34
2023-02-27T17:48:02.181Z,103090.41
2023-02-27T17:52:55.148Z,103099.84
2023-02-27T17:57:56.517Z,103102.97
2023-02-27T18:02:48.151Z,103109.97
2023-02-27T18:07:37.946Z,103112.97
2023-02-27T18:12:28.594Z,103113.84
2023-02-27T18:17:22.032Z,103113.84
2023-02-27T18:22:19.821Z,103119.53
2023-02-27T18:27:13.729Z,103119.44
2023-02-27T18:32:05.911Z,103114.75
2023-02-27T18:37:06.076Z,103109.31
2023-02-27T18:42:02.277Z,103104.19
2023-02-27T18:46:52.847Z,103112.66
2023-02-27T18:51:44.515Z,103113.47
2023-02-27T18:56:36.762Z,103124.53
2023-02-27T19:01:28.350Z,103128.56
2023-02-27T19:06:18.332Z,103121.13
2023-02-27T19:11:13.994Z,103125.19
2023-02-27T19:16:09.085Z,103121.00
2023-02-27T19:21:07.564Z,103111.78
2023-02-27T19:26:03.152Z,103120.22
2023-02-27T19:31:00.594Z,103127.59
2023-02-27T19:35:55.653Z,103134.78
2023-02-27T19:40:47.245Z,103134.00
2023-02-27T19:45:43.461Z,103129.31
2023-02-27T19:50:34.935Z,103133.41
2023-02-27T19:55:30.569Z,103140.50
2023-02-27T20:00:26.520Z,103141.88
2023-02-27T20:05:18.788Z,103140.13
2023-02-27T20:10:21.043Z,103139.38
2023-02-27T20:15:25.359Z,103144.44
2023-02-27T20:20:16.263Z,103141.94
2023-02-27T20:25:07.860Z,103145.41
2023-02-27T20:29:58.174Z,103144.88
2023-02-27T20:34:55.426Z,103142.38
2023-02-27T20:39:47.110Z,103151.06
2023-02-27T20:44:39.057Z,103144.66
2023-02-27T20:49:33.645Z,103142.22
2023-02-27T20:54:29.236Z,103153.19
2023-02-27T20:59:22.401Z,103148.41
2023-02-27T21:04:16.878Z,103149.84
2023-02-27T21:09:15.558Z,103149.72
2023-02-27T21:14:11.042Z,103151.81
2023-02-27T21:19:00.894Z,103153.50
2023-02-27T21:23:50.909Z,103159.84
2023-02-27T21:28:48.220Z,103161.53
2023-02-27T21:33:45.614Z,103160.88
2023-02-27T21:38:37.729Z,103166.19
2023-02-27T21:43:34.631Z,103161.28
2023-02-27T21:48:28.874Z,103170.66
2023-02-27T21:53:30.390Z,103166.06
2023-02-27T21:58:20.989Z,103155.75
2023-02-27T22:03:11.789Z,103160.66
2023-02-27T22:08:01.932Z,103149.56
2023-02-27T22:12:54.542Z,103156.63
2023-02-27T22:17:58.060Z,103162.69
2023-02-27T22:22:51.456Z,103161.31
2023-02-27T22:27:45.658Z,103168.53
2023-02-27T22:32:43.234Z,103169.81
2023-02-27T22:37:33.859Z,103177.06
2023-02-27T22:42:30.275Z,103155.63
2023-02-27T22:47:26.840Z,103178.03
2023-02-27T22:52:21.022Z,103174.91
2023-02-27T22:57:10.838Z,103168.63
2023-02-27T23:02:03.180Z,103175.53
2023-02-27T23:06:53.558Z,103175.53
2023-02-27T23:11:47.144Z,103180.59
2023-02-27T23:16:39.209Z,103180.25
2023-02-27T23:21:44.115Z,103182.91
2023-02-27T23:26:36.052Z,103186.91
2023-02-27T23:31:34.258Z,103186.19
2023-02-27T23:36:25.466Z,103202.00
2023-02-27T23:41:17.700Z,103194.81
2023-02-27T23:46:14.839Z,103187.66
2023-02-27T23:51:11.687Z,103193.47
2023-02-27T23:56:02.482Z,103190.03
